Time;durP1;ratioP1;P1;durP2;ratioP2;P2;SDS_P1;SDS_P2;PMS_P1;PMS_P2;Temp;Humidity;BMP_temperature;BMP_pressure;BME280_temperature;BME280_humidity;BME280_pressure;Samples;Min_cycle;Max_cycle;Signal;HPM_P1;HPM_P2
2023/05/30 00:01:06;;;;;;;7.97;4.00;;;10.60;99.90;;;;;;4956065;28;94551;-36
2023/05/30 00:03:35;;;;;;;8.57;3.90;;;10.60;99.90;;;;;;4956798;28;95242;-35
2023/05/30 00:06:04;;;;;;;9.07;3.67;;;10.60;99.90;;;;;;4956720;28;92631;-32
2023/05/30 00:08:30;;;;;;;6.70;3.47;;;10.70;99.90;;;;;;4955937;28;94662;-33
2023/05/30 00:10:56;;;;;;;15.63;4.20;;;10.60;99.90;;;;;;4956785;28;94608;-29
2023/05/30 00:13:21;;;;;;;8.90;4.78;;;10.60;99.90;;;;;;4956503;28;94791;-35
2023/05/30 00:15:47;;;;;;;6.93;4.18;;;10.70;99.90;;;;;;4956952;28;92339;-31
2023/05/30 00:18:13;;;;;;;5.70;3.92;;;10.70;99.90;;;;;;4956381;28;94879;-31
2023/05/30 00:20:39;;;;;;;14.80;4.00;;;10.80;99.90;;;;;;4956021;28;94073;-31
2023/05/30 00:23:05;;;;;;;12.55;5.13;;;10.80;99.90;;;;;;4957191;28;93856;-34
2023/05/30 00:25:32;;;;;;;7.47;3.97;;;10.80;99.90;;;;;;4955854;28;92692;-33
2023/05/30 00:27:58;;;;;;;8.35;3.88;;;10.80;99.90;;;;;;4956009;28;96551;-31
2023/05/30 00:30:25;;;;;;;5.78;5.00;;;10.80;99.90;;;;;;4955818;28;95141;-32
2023/05/30 00:32:51;;;;;;;7.00;3.72;;;10.80;99.90;;;;;;4939529;28;94466;-33
2023/05/30 00:35:16;;;;;;;8.75;3.95;;;10.80;99.90;;;;;;4955943;28;94163;-36
2023/05/30 00:37:43;;;;;;;10.48;5.22;;;10.80;99.90;;;;;;4956702;28;95437;-32
2023/05/30 00:40:09;;;;;;;7.70;4.15;;;10.80;99.90;;;;;;4955792;28;95747;-34
2023/05/30 00:42:35;;;;;;;5.65;3.38;;;10.80;99.90;;;;;;4957257;28;94878;-37
2023/05/30 00:45:00;;;;;;;15.75;4.85;;;10.80;99.90;;;;;;4956618;28;92099;-33
2023/05/30 00:47:26;;;;;;;12.75;4.47;;;10.70;99.90;;;;;;4955530;28;94390;-37
2023/05/30 00:49:53;;;;;;;10.00;5.68;;;10.70;99.90;;;;;;4956692;28;94337;-33
2023/05/30 00:52:20;;;;;;;4.78;3.83;;;10.80;99.90;;;;;;4955402;28;95993;-35
2023/05/30 00:54:47;;;;;;;5.13;4.07;;;10.80;99.90;;;;;;4956170;28;92869;-32
2023/05/30 00:57:14;;;;;;;9.55;4.07;;;10.80;99.90;;;;;;4956039;28;94578;-31
2023/05/30 00:59:41;;;;;;;14.45;6.72;;;10.80;99.90;;;;;;4956122;28;95204;-33
2023/05/30 01:02:06;;;;;;;6.38;4.25;;;10.70;99.90;;;;;;4955931;28;93859;-31
2023/05/30 01:04:32;;;;;;;12.80;4.43;;;10.70;99.90;;;;;;4956491;28;92196;-34
2023/05/30 01:06:59;;;;;;;7.75;3.58;;;10.70;99.90;;;;;;4955367;28;95984;-34
2023/05/30 01:09:25;;;;;;;8.25;4.03;;;10.80;99.90;;;;;;4955405;28;93415;-35
2023/05/30 01:12:06;;;;;;;10.35;3.58;;;10.80;99.90;;;;;;4957914;28;94473;-32
2023/05/30 01:14:42;;;;;;;10.60;4.78;;;10.70;99.90;;;;;;4959388;28;92829;-34
2023/05/30 01:17:17;;;;;;;11.15;4.13;;;10.70;99.90;;;;;;4958667;28;95829;-30
2023/05/30 01:19:58;;;;;;;9.30;3.88;;;10.60;99.90;;;;;;4959149;28;95497;-32
2023/05/30 01:22:38;;;;;;;4.85;4.10;;;10.70;99.90;;;;;;4958369;28;93262;-31
2023/05/30 01:25:27;;;;;;;12.20;5.45;;;10.70;99.90;;;;;;4959343;28;93992;-32
2023/05/30 01:28:09;;;;;;;14.45;6.32;;;10.70;99.90;;;;;;4959585;28;94850;-31
2023/05/30 01:30:42;;;;;;;9.25;4.13;;;10.60;99.90;;;;;;4941509;28;94845;-31
2023/05/30 01:33:09;;;;;;;8.90;4.47;;;10.70;99.90;;;;;;4958900;28;93061;-31
2023/05/30 01:35:35;;;;;;;7.75;3.78;;;10.70;99.90;;;;;;4959227;28;92341;-31
2023/05/30 01:38:01;;;;;;;4.47;3.10;;;10.70;99.90;;;;;;4958944;28;94545;-30
2023/05/30 01:40:28;;;;;;;10.10;4.18;;;10.70;99.90;;;;;;4940706;28;94430;-31
2023/05/30 01:43:22;;;;;;;8.10;4.32;;;10.70;99.90;;;;;;4958700;28;95166;-36
2023/05/30 01:46:12;;;;;;;6.38;4.15;;;10.80;99.90;;;;;;4958757;28;93472;-32
2023/05/30 01:48:56;;;;;;;13.75;5.43;;;10.70;99.90;;;;;;4958880;28;95164;-36
2023/05/30 01:51:28;;;;;;;6.80;4.10;;;10.70;99.90;;;;;;4957907;28;94693;-33
2023/05/30 01:53:59;;;;;;;25.27;5.03;;;10.70;99.90;;;;;;4959206;28;93403;-32
2023/05/30 01:56:27;;;;;;;5.40;4.00;;;10.70;99.90;;;;;;4958741;28;94594;-34
2023/05/30 01:58:54;;;;;;;9.63;4.47;;;10.70;99.90;;;;;;4957904;28;94692;-33
2023/05/30 02:01:25;;;;;;;8.50;5.47;;;10.60;99.90;;;;;;4958181;28;94321;-34
2023/05/30 02:03:52;;;;;;;14.65;5.55;;;10.70;99.90;;;;;;4959183;28;93545;-32
2023/05/30 02:06:17;;;;;;;8.93;4.47;;;10.60;99.90;;;;;;4957735;28;94452;-36
2023/05/30 02:08:43;;;;;;;6.00;3.75;;;10.60;99.90;;;;;;4957786;28;95772;-31
2023/05/30 02:11:08;;;;;;;12.48;4.28;;;10.60;99.90;;;;;;4957601;28;95859;-33
2023/05/30 02:13:34;;;;;;;7.53;3.60;;;10.70;99.90;;;;;;4958666;28;94977;-34
2023/05/30 02:16:00;;;;;;;14.80;5.93;;;10.70;99.90;;;;;;4957588;28;94146;-32
2023/05/30 02:18:27;;;;;;;8.25;4.20;;;10.70;99.90;;;;;;4957926;28;94816;-36
2023/05/30 02:20:53;;;;;;;9.73;4.30;;;10.60;99.90;;;;;;4957968;28;94440;-29
2023/05/30 02:23:19;;;;;;;6.82;4.45;;;10.60;99.90;;;;;;4957269;28;93461;-31
2023/05/30 02:25:45;;;;;;;14.60;5.43;;;10.60;99.90;;;;;;4958754;28;93545;-36
2023/05/30 02:28:10;;;;;;;9.23;4.40;;;10.60;99.90;;;;;;4957633;28;94869;-34
2023/05/30 02:30:37;;;;;;;7.38;3.58;;;10.60;99.90;;;;;;4957827;28;94884;-33
2023/05/30 02:33:03;;;;;;;19.23;6.00;;;10.50;99.90;;;;;;4958090;28;93105;-32
2023/05/30 02:35:28;;;;;;;12.23;4.28;;;10.60;99.90;;;;;;4957361;28;94274;-32
2023/05/30 02:37:54;;;;;;;7.10;4.07;;;10.60;99.90;;;;;;4939850;28;93996;-35
2023/05/30 02:40:20;;;;;;;5.80;3.88;;;10.50;99.90;;;;;;4957684;28;94180;-34
2023/05/30 02:42:45;;;;;;;10.90;4.05;;;10.60;99.90;;;;;;4957919;28;92511;-34
2023/05/30 02:45:11;;;;;;;6.97;4.78;;;10.60;99.90;;;;;;4957959;28;93319;-31
2023/05/30 02:47:37;;;;;;;6.88;3.47;;;10.70;99.90;;;;;;4957551;28;94583;-31
2023/05/30 02:50:02;;;;;;;9.98;4.78;;;10.60;99.90;;;;;;4958072;28;94585;-35
2023/05/30 02:52:28;;;;;;;10.38;4.65;;;10.60;99.90;;;;;;4957680;28;94415;-34
2023/05/30 02:54:54;;;;;;;7.22;3.53;;;10.50;99.90;;;;;;4957786;28;94875;-31
2023/05/30 02:57:21;;;;;;;8.85;4.57;;;10.50;99.90;;;;;;4956775;28;95594;-32
2023/05/30 02:59:47;;;;;;;18.85;4.97;;;10.50;99.90;;;;;;4956313;28;95457;-33
2023/05/30 03:02:12;;;;;;;11.13;5.18;;;10.60;99.90;;;;;;4957684;28;92228;-35
2023/05/30 03:04:38;;;;;;;11.20;4.10;;;10.60;99.90;;;;;;4957510;28;94032;-33
2023/05/30 03:07:08;;;;;;;11.23;4.55;;;10.60;99.90;;;;;;4957188;28;93885;-36
2023/05/30 03:09:34;;;;;;;8.68;3.92;;;10.60;99.90;;;;;;4956825;28;94715;-37
2023/05/30 03:12:00;;;;;;;4.65;2.92;;;10.60;99.90;;;;;;4957516;28;92238;-34
2023/05/30 03:14:26;;;;;;;14.57;4.93;;;10.60;99.90;;;;;;4957257;28;93186;-31
2023/05/30 03:16:52;;;;;;;6.45;3.30;;;10.70;99.90;;;;;;4957094;28;94695;-36
2023/05/30 03:19:18;;;;;;;7.35;2.97;;;10.70;99.90;;;;;;4956801;28;94362;-33
2023/05/30 03:21:43;;;;;;;14.55;5.22;;;10.70;99.90;;;;;;4956411;28;94542;-33
2023/05/30 03:24:12;;;;;;;28.83;3.80;;;10.70;99.90;;;;;;4956682;28;93299;-35
2023/05/30 03:26:37;;;;;;;8.77;5.10;;;10.60;99.90;;;;;;4957080;28;95021;-32
2023/05/30 03:29:03;;;;;;;6.22;4.35;;;10.60;99.90;;;;;;4956134;28;94169;-31
2023/05/30 03:31:29;;;;;;;16.08;4.53;;;10.50;99.90;;;;;;4957461;28;93046;-32
2023/05/30 03:33:55;;;;;;;14.00;4.45;;;10.60;99.90;;;;;;4955762;28;94487;-34
2023/05/30 03:36:20;;;;;;;12.15;4.68;;;10.60;99.90;;;;;;4956636;28;94539;-37
2023/05/30 03:38:46;;;;;;;7.75;3.70;;;10.60;99.90;;;;;;4957769;28;95258;-32
2023/05/30 03:41:12;;;;;;;11.55;4.28;;;10.50;99.90;;;;;;4956789;28;93646;-34
2023/05/30 03:43:37;;;;;;;18.50;5.03;;;10.50;99.90;;;;;;4957236;28;93111;-33
2023/05/30 03:46:03;;;;;;;6.05;4.25;;;10.50;99.90;;;;;;4956016;28;95559;-31
2023/05/30 03:48:29;;;;;;;9.00;3.55;;;10.40;99.90;;;;;;4956382;28;95285;-34
2023/05/30 03:50:55;;;;;;;9.10;3.90;;;10.50;99.90;;;;;;4956956;28;94524;-33
2023/05/30 03:53:20;;;;;;;5.60;3.53;;;10.40;99.90;;;;;;4956559;28;92558;-32
2023/05/30 03:55:47;;;;;;;6.15;2.92;;;10.40;99.90;;;;;;4956907;28;96964;-30
2023/05/30 03:58:12;;;;;;;14.07;3.88;;;10.50;99.90;;;;;;4956233;28;94399;-33
2023/05/30 04:00:38;;;;;;;10.10;4.55;;;10.50;99.90;;;;;;4956429;28;94550;-34
2023/05/30 04:03:04;;;;;;;7.47;4.70;;;10.50;99.90;;;;;;4956670;28;92686;-36
2023/05/30 04:05:29;;;;;;;11.45;4.05;;;10.50;99.90;;;;;;4956048;28;94710;-33
2023/05/30 04:07:55;;;;;;;7.55;4.50;;;10.60;99.90;;;;;;4956988;28;95662;-33
2023/05/30 04:10:21;;;;;;;11.18;4.68;;;10.60;99.90;;;;;;4955941;28;94185;-32
2023/05/30 04:12:47;;;;;;;10.95;5.30;;;10.60;99.90;;;;;;4956773;28;93003;-31
2023/05/30 04:15:13;;;;;;;9.60;4.50;;;10.60;99.90;;;;;;4955722;28;94548;-31
2023/05/30 04:17:38;;;;;;;10.68;5.57;;;10.70;99.90;;;;;;4939020;28;94746;-37
2023/05/30 04:20:05;;;;;;;11.52;4.80;;;10.70;99.90;;;;;;4956816;28;94687;-34
2023/05/30 04:22:32;;;;;;;13.63;5.10;;;10.70;99.90;;;;;;5021305;22;94907;-30
2023/05/30 04:24:58;;;;;;;9.25;4.65;;;10.70;99.90;;;;;;4995633;28;94797;-35
2023/05/30 04:27:24;;;;;;;13.05;4.38;;;10.80;99.90;;;;;;4996628;28;94476;-31
2023/05/30 04:29:50;;;;;;;13.48;4.18;;;10.90;99.90;;;;;;4995497;28;92407;-33
2023/05/30 04:32:16;;;;;;;6.28;4.20;;;10.90;99.90;;;;;;4996512;28;93007;-31
2023/05/30 04:34:43;;;;;;;7.72;4.28;;;10.90;99.90;;;;;;4994508;28;95584;-35
2023/05/30 04:37:10;;;;;;;11.98;4.93;;;10.90;99.90;;;;;;4977197;28;97863;-33
2023/05/30 04:39:36;;;;;;;8.52;4.40;;;10.90;99.90;;;;;;4996105;28;93364;-32
2023/05/30 04:42:04;;;;;;;12.15;3.13;;;11.00;99.90;;;;;;4996103;28;93406;-35
2023/05/30 04:44:37;;;;;;;13.10;4.47;;;11.10;99.90;;;;;;4995049;28;95236;-32
2023/05/30 04:47:05;;;;;;;11.63;4.53;;;11.10;99.90;;;;;;4997554;28;95085;-33
2023/05/30 04:49:31;;;;;;;7.47;4.10;;;11.10;99.90;;;;;;4999367;28;93199;-32
2023/05/30 04:51:57;;;;;;;4.78;3.78;;;11.20;99.90;;;;;;4999780;28;93923;-37
2023/05/30 04:54:23;;;;;;;13.57;5.05;;;11.20;99.90;;;;;;4999304;28;94788;-33
2023/05/30 04:56:48;;;;;;;8.40;3.72;;;11.20;99.90;;;;;;4998973;28;94784;-33
2023/05/30 04:59:15;;;;;;;6.22;4.32;;;11.20;99.90;;;;;;4998400;28;95594;-35
2023/05/30 05:01:41;;;;;;;17.88;5.28;;;11.20;99.90;;;;;;4998895;28;94131;-33
2023/05/30 05:04:06;;;;;;;13.57;5.35;;;11.20;99.90;;;;;;4998572;28;94565;-33
2023/05/30 05:06:32;;;;;;;24.17;4.97;;;11.30;99.90;;;;;;4999165;28;94537;-32
2023/05/30 05:08:57;;;;;;;13.05;4.30;;;11.30;99.90;;;;;;4981283;28;93937;-33
2023/05/30 05:11:23;;;;;;;8.65;4.05;;;11.30;99.90;;;;;;4998888;28;93597;-33
2023/05/30 05:13:49;;;;;;;6.13;3.97;;;11.40;99.90;;;;;;4998423;28;93184;-35
2023/05/30 05:16:15;;;;;;;8.07;4.47;;;11.40;99.90;;;;;;4998710;28;94807;-33
2023/05/30 05:18:40;;;;;;;12.77;5.07;;;11.40;99.90;;;;;;4999814;28;93018;-33
2023/05/30 05:21:06;;;;;;;6.25;3.85;;;11.50;99.90;;;;;;4997930;28;92626;-34
2023/05/30 05:23:32;;;;;;;7.18;4.15;;;11.50;99.90;;;;;;4998415;28;95620;-32
2023/05/30 05:26:00;;;;;;;13.57;4.63;;;11.50;99.90;;;;;;4997863;28;95302;-34
2023/05/30 05:28:25;;;;;;;8.67;3.20;;;11.60;99.90;;;;;;4998078;28;94452;-34
2023/05/30 05:30:52;;;;;;;8.55;4.57;;;11.60;99.90;;;;;;4998550;28;92946;-33
2023/05/30 05:33:19;;;;;;;9.23;4.07;;;11.60;99.90;;;;;;4998091;28;93859;-36
2023/05/30 05:35:48;;;;;;;13.25;4.60;;;11.70;99.90;;;;;;4997808;28;94599;-36
2023/05/30 05:38:14;;;;;;;11.70;4.88;;;11.70;99.90;;;;;;4997786;28;92934;-33
2023/05/30 05:40:41;;;;;;;7.45;4.53;;;11.80;99.90;;;;;;4998842;28;92740;-35
2023/05/30 05:43:07;;;;;;;7.53;3.63;;;11.80;99.90;;;;;;4997674;28;94490;-35
2023/05/30 05:45:32;;;;;;;8.52;4.90;;;11.80;99.90;;;;;;4998045;28;94449;-33
2023/05/30 05:47:58;;;;;;;9.60;4.07;;;11.90;99.90;;;;;;4998007;28;94965;-32
2023/05/30 05:50:23;;;;;;;10.48;5.13;;;11.90;99.90;;;;;;4997873;28;92265;-34
2023/05/30 05:52:50;;;;;;;11.68;4.75;;;11.90;99.90;;;;;;4998499;28;94741;-34
2023/05/30 05:55:15;;;;;;;8.98;4.57;;;12.00;99.90;;;;;;4997708;28;94989;-32
2023/05/30 05:57:41;;;;;;;16.33;4.15;;;12.00;99.90;;;;;;4997951;28;92913;-36
2023/05/30 06:00:08;;;;;;;10.93;4.32;;;11.90;99.90;;;;;;4998049;28;93849;-31
2023/05/30 06:02:34;;;;;;;9.70;5.07;;;11.90;99.90;;;;;;4997936;28;94545;-32
2023/05/30 06:05:00;;;;;;;6.80;4.90;;;11.90;99.90;;;;;;4999323;28;94760;-36
2023/05/30 06:07:25;;;;;;;12.73;4.85;;;11.90;99.90;;;;;;4997603;28;92685;-35
2023/05/30 06:09:51;;;;;;;18.58;5.72;;;11.90;99.90;;;;;;4998094;28;93621;-34
2023/05/30 06:12:16;;;;;;;9.40;4.05;;;12.00;99.90;;;;;;4997274;28;95720;-33
2023/05/30 06:14:42;;;;;;;10.70;3.33;;;12.00;99.90;;;;;;4997220;28;96023;-34
2023/05/30 06:17:08;;;;;;;6.72;4.35;;;12.00;99.90;;;;;;4998831;28;94167;-31
2023/05/30 06:19:34;;;;;;;11.57;4.55;;;12.00;99.90;;;;;;4997606;28;93443;-34
2023/05/30 06:21:59;;;;;;;12.07;3.97;;;12.00;99.90;;;;;;4997726;28;94106;-32
2023/05/30 06:24:25;;;;;;;9.23;4.97;;;12.00;99.90;;;;;;4997708;28;94741;-32
2023/05/30 06:26:50;;;;;;;11.35;5.35;;;11.90;99.90;;;;;;4998158;28;92378;-32
2023/05/30 06:29:16;;;;;;;10.82;4.30;;;12.00;99.90;;;;;;4988751;28;91451;-33
2023/05/30 06:31:42;;;;;;;19.88;3.40;;;12.10;99.90;;;;;;4987885;28;94744;-32
2023/05/30 06:34:07;;;;;;;10.43;3.50;;;12.10;99.90;;;;;;4997429;28;94585;-34
2023/05/30 06:36:33;;;;;;;7.65;4.28;;;12.10;99.90;;;;;;4996896;28;94007;-34
2023/05/30 06:38:58;;;;;;;12.27;3.85;;;12.10;99.90;;;;;;4998755;28;93162;-32
2023/05/30 06:41:24;;;;;;;7.38;4.32;;;12.10;99.90;;;;;;4997288;28;95191;-33
2023/05/30 06:43:50;;;;;;;7.45;5.00;;;12.10;99.90;;;;;;4997440;28;95130;-34
2023/05/30 06:46:16;;;;;;;7.25;3.42;;;12.00;99.90;;;;;;4997896;28;94090;-33
2023/05/30 06:48:41;;;;;;;5.75;3.47;;;12.00;99.90;;;;;;4996938;28;94140;-32
2023/05/30 06:51:07;;;;;;;10.07;4.00;;;12.00;99.90;;;;;;4997825;28;94774;-32
2023/05/30 06:53:33;;;;;;;23.23;5.55;;;12.00;99.90;;;;;;4997381;28;95181;-32
2023/05/30 06:55:59;;;;;;;13.60;3.85;;;12.10;99.90;;;;;;4992817;28;92604;-33
2023/05/30 06:58:25;;;;;;;12.73;4.28;;;12.00;99.90;;;;;;4997316;28;92815;-32
2023/05/30 07:00:51;;;;;;;13.70;6.03;;;12.10;99.90;;;;;;4996169;28;96124;-30
2023/05/30 07:03:16;;;;;;;11.50;4.72;;;12.10;99.90;;;;;;4997398;28;95260;-35
2023/05/30 07:05:42;;;;;;;14.27;5.43;;;12.10;99.90;;;;;;4996226;28;93829;-31
2023/05/30 07:08:08;;;;;;;12.10;4.47;;;12.10;99.90;;;;;;4996056;28;94611;-36
2023/05/30 07:10:34;;;;;;;6.53;3.45;;;12.00;99.90;;;;;;4977459;28;95048;-33
2023/05/30 07:12:59;;;;;;;15.25;4.20;;;12.00;99.90;;;;;;4996397;28;94629;-31
2023/05/30 07:15:27;;;;;;;13.07;5.78;;;12.00;99.90;;;;;;4997257;28;92684;-34
2023/05/30 07:17:52;;;;;;;10.45;6.15;;;12.10;99.90;;;;;;4996989;28;93420;-31
2023/05/30 07:20:22;;;;;;;9.32;4.10;;;12.00;99.90;;;;;;4995828;28;94314;-34
2023/05/30 07:22:49;;;;;;;8.80;3.80;;;12.10;99.90;;;;;;4995783;28;94543;-35
2023/05/30 07:25:14;;;;;;;8.95;4.35;;;12.20;99.90;;;;;;4995785;28;94344;-33
2023/05/30 07:27:40;;;;;;;9.25;4.93;;;12.10;99.90;;;;;;4975277;28;92235;-34
2023/05/30 07:30:06;;;;;;;13.40;4.78;;;12.00;99.90;;;;;;4992090;28;95599;-33
2023/05/30 07:32:32;;;;;;;13.10;4.82;;;12.00;99.90;;;;;;4993780;28;93304;-33
2023/05/30 07:34:57;;;;;;;10.68;5.10;;;12.10;99.90;;;;;;4993524;28;94658;-37
2023/05/30 07:37:23;;;;;;;16.13;5.53;;;12.10;99.90;;;;;;4993763;28;94147;-33
2023/05/30 07:39:48;;;;;;;12.50;3.75;;;12.10;99.90;;;;;;4993284;28;94778;-31
2023/05/30 07:42:14;;;;;;;10.48;5.13;;;12.10;99.90;;;;;;4993392;28;93582;-33
2023/05/30 07:44:39;;;;;;;8.10;4.43;;;12.10;99.90;;;;;;4993493;28;94564;-33
2023/05/30 07:47:06;;;;;;;6.53;4.72;;;12.10;99.90;;;;;;4976040;28;93705;-36
2023/05/30 07:49:31;;;;;;;7.22;3.92;;;12.10;99.90;;;;;;4992658;28;97014;-32
2023/05/30 07:51:57;;;;;;;10.23;4.25;;;12.20;99.90;;;;;;4993028;28;95809;-32
2023/05/30 07:54:22;;;;;;;5.63;2.70;;;12.20;99.90;;;;;;4994240;28;94013;-33
2023/05/30 07:56:48;;;;;;;5.75;3.67;;;12.20;99.90;;;;;;4993227;28;93738;-32
2023/05/30 07:59:14;;;;;;;15.45;3.72;;;12.30;99.90;;;;;;4994039;28;95036;-35
2023/05/30 08:01:39;;;;;;;5.85;3.35;;;12.30;99.90;;;;;;4985487;28;95249;-32
2023/05/30 08:04:05;;;;;;;5.63;3.28;;;12.30;99.90;;;;;;4984085;28;94265;-31
2023/05/30 08:06:31;;;;;;;8.10;3.50;;;12.30;99.90;;;;;;4982412;28;92380;-32
2023/05/30 08:08:57;;;;;;;16.55;3.75;;;12.30;99.90;;;;;;4980863;28;94497;-30
2023/05/30 08:11:22;;;;;;;8.00;3.83;;;12.20;99.90;;;;;;4978271;28;94544;-32
2023/05/30 08:13:48;;;;;;;5.72;3.72;;;12.30;99.90;;;;;;4973036;28;93105;-34
2023/05/30 08:16:14;;;;;;;12.65;3.83;;;12.30;99.90;;;;;;4974007;28;94535;-32
2023/05/30 08:18:41;;;;;;;7.15;3.60;;;12.30;99.90;;;;;;4973984;28;94677;-33
2023/05/30 08:21:07;;;;;;;13.00;3.22;;;12.40;99.90;;;;;;4973795;28;94366;-32
2023/05/30 08:23:33;;;;;;;10.07;3.13;;;12.40;99.90;;;;;;4977552;28;93181;-31
2023/05/30 08:25:59;;;;;;;6.40;3.40;;;12.40;99.90;;;;;;4959230;28;93869;-35
2023/05/30 08:28:25;;;;;;;8.40;3.90;;;12.20;99.90;;;;;;4958565;28;96742;-36
2023/05/30 08:30:51;;;;;;;7.45;3.65;;;12.30;99.90;;;;;;4977218;28;94803;-31
2023/05/30 08:33:18;;;;;;;5.53;3.15;;;12.20;99.90;;;;;;4977099;28;93973;-32
2023/05/30 08:35:43;;;;;;;6.10;2.97;;;12.30;99.90;;;;;;4976720;28;93238;-35
2023/05/30 08:38:09;;;;;;;10.43;2.67;;;12.20;99.90;;;;;;4976887;28;95976;-31
2023/05/30 08:40:40;;;;;;;8.57;4.28;;;12.20;99.90;;;;;;4976218;28;95414;-31
2023/05/30 08:43:05;;;;;;;5.95;2.60;;;12.20;99.90;;;;;;4977300;28;92584;-35
2023/05/30 08:45:31;;;;;;;3.83;2.60;;;12.20;99.90;;;;;;4981905;28;92965;-31
2023/05/30 08:47:59;;;;;;;4.35;2.72;;;12.30;99.90;;;;;;4977008;28;94267;-32
2023/05/30 08:50:25;;;;;;;2.95;1.90;;;12.30;99.90;;;;;;4976436;28;94745;-33
2023/05/30 08:52:53;;;;;;;4.07;2.92;;;12.30;99.90;;;;;;4943429;28;94716;-36
2023/05/30 08:55:33;;;;;;;18.02;3.70;;;12.40;99.90;;;;;;4980231;28;92859;-32
2023/05/30 08:58:08;;;;;;;4.57;2.92;;;12.40;99.90;;;;;;4996763;28;94847;-32
2023/05/30 09:00:35;;;;;;;6.53;2.97;;;12.50;99.90;;;;;;4995987;28;94540;-35
2023/05/30 09:03:05;;;;;;;2.72;1.92;;;12.50;99.90;;;;;;4996188;28;94473;-33
2023/05/30 09:05:33;;;;;;;4.10;3.35;;;12.50;99.90;;;;;;4996089;28;92214;-32
2023/05/30 09:08:01;;;;;;;2.03;1.92;;;12.60;99.90;;;;;;4996509;28;94722;-33
2023/05/30 09:10:28;;;;;;;3.22;2.55;;;12.60;99.90;;;;;;4995914;28;95145;-32
2023/05/30 09:12:55;;;;;;;5.85;2.67;;;12.60;99.90;;;;;;4996710;28;93430;-33
2023/05/30 09:15:21;;;;;;;6.28;2.45;;;12.70;99.90;;;;;;4995650;28;93464;-32
2023/05/30 09:17:46;;;;;;;1.88;1.75;;;12.80;99.90;;;;;;4996462;28;93638;-34
2023/05/30 09:20:17;;;;;;;10.07;2.63;;;12.80;99.90;;;;;;4996965;28;94842;-33
2023/05/30 09:22:46;;;;;;;4.28;2.65;;;13.00;99.90;;;;;;4996341;28;93329;-35
2023/05/30 09:25:15;;;;;;;3.17;2.88;;;12.90;99.90;;;;;;4996291;28;94647;-32
2023/05/30 09:27:46;;;;;;;2.78;2.58;;;12.80;99.90;;;;;;4995165;28;97482;-35
2023/05/30 09:30:12;;;;;;;3.15;2.85;;;12.80;99.90;;;;;;4996219;28;96023;-31
2023/05/30 09:32:38;;;;;;;4.50;2.90;;;12.80;99.90;;;;;;4995457;28;94075;-32
2023/05/30 09:35:09;;;;;;;10.68;3.25;;;12.80;99.90;;;;;;4996325;28;92548;-34
2023/05/30 09:37:43;;;;;;;3.88;2.40;;;12.90;99.90;;;;;;4995599;28;95381;-36
2023/05/30 09:40:11;;;;;;;4.82;2.63;;;12.90;99.90;;;;;;4994980;28;94653;-34
2023/05/30 09:42:41;;;;;;;2.40;1.85;;;12.90;99.90;;;;;;4961764;28;94322;-32
2023/05/30 09:45:18;;;;;;;3.25;2.20;;;12.90;99.90;;;;;;4995504;28;93541;-35
2023/05/30 09:47:45;;;;;;;4.77;3.03;;;13.00;99.90;;;;;;4995646;28;94305;-36
2023/05/30 09:50:16;;;;;;;4.03;1.83;;;13.00;99.90;;;;;;4995672;28;96022;-35
2023/05/30 09:52:43;;;;;;;3.28;2.45;;;12.90;99.90;;;;;;4995707;28;95081;-32
2023/05/30 09:55:13;;;;;;;2.28;1.90;;;13.00;99.90;;;;;;4996517;28;92208;-35
2023/05/30 09:57:40;;;;;;;4.63;2.30;;;13.00;99.90;;;;;;4977998;28;94893;-32
2023/05/30 10:00:11;;;;;;;13.43;2.10;;;13.10;99.90;;;;;;4995073;28;94502;-35
2023/05/30 10:02:51;;;;;;;3.60;2.03;;;13.00;99.90;;;;;;4996471;28;92693;-32
2023/05/30 10:05:19;;;;;;;1.60;1.50;;;13.10;99.90;;;;;;4995826;28;93671;-33
2023/05/30 10:07:46;;;;;;;1.92;1.48;;;13.10;99.90;;;;;;4995328;28;95132;-32
2023/05/30 10:10:14;;;;;;;3.17;1.55;;;13.20;99.90;;;;;;4976797;28;92884;-31
2023/05/30 10:12:41;;;;;;;;;;;13.40;99.90;;;;;;4996523;28;93710;-37
2023/05/30 10:15:07;;;;;;;1.52;1.27;;;13.40;99.90;;;;;;4997328;28;94826;-34
2023/05/30 10:17:36;;;;;;;5.47;1.55;;;13.40;99.90;;;;;;4994434;28;97359;-34
2023/05/30 10:20:06;;;;;;;3.63;1.65;;;13.40;99.90;;;;;;4994588;28;95367;-33
2023/05/30 10:22:40;;;;;;;2.58;2.25;;;13.40;99.90;;;;;;4994740;28;94459;-35
2023/05/30 10:25:08;;;;;;;3.97;1.58;;;13.50;99.90;;;;;;4960963;28;93574;-33
2023/05/30 10:27:42;;;;;;;3.95;1.65;;;13.50;99.90;;;;;;4994944;28;93966;-30
2023/05/30 10:30:11;;;;;;;2.55;1.73;;;13.60;99.90;;;;;;4993933;28;94982;-34
2023/05/30 10:32:38;;;;;;;4.45;1.92;;;13.70;99.90;;;;;;4995395;28;93180;-32
2023/05/30 10:35:31;;;;;;;2.13;2.03;;;13.60;99.90;;;;;;4995184;28;92198;-34
2023/05/30 10:37:58;;;;;;;7.00;2.47;;;13.70;99.90;;;;;;4991849;28;95562;-32
2023/05/30 10:41:02;;;;;;;1.95;1.45;;;13.60;99.90;;;;;;4994194;28;94701;-33
2023/05/30 10:43:46;;;;;;;3.95;2.35;;;13.60;99.90;;;;;;4963422;28;93236;-33
2023/05/30 10:46:12;;;;;;;1.92;1.73;;;13.50;99.90;;;;;;4994222;28;92549;-35
2023/05/30 10:48:59;;;;;;;1.85;1.75;;;13.40;99.90;;;;;;4994878;28;95135;-32
2023/05/30 10:51:25;;;;;;;1.35;1.25;;;13.50;99.90;;;;;;4994253;28;94302;-32
2023/05/30 10:53:51;;;;;;;2.85;2.55;;;13.40;99.90;;;;;;4994334;28;94795;-32
2023/05/30 10:56:27;;;;;;;1.52;1.42;;;13.40;99.90;;;;;;4994767;28;93801;-34
2023/05/30 10:58:56;;;;;;;2.15;1.95;;;13.50;99.90;;;;;;4994654;28;95038;-30
2023/05/30 11:01:26;;;;;;;1.88;1.65;;;13.50;99.90;;;;;;4976728;28;94558;-33
2023/05/30 11:04:13;;;;;;;1.88;1.70;;;13.60;99.90;;;;;;4995333;28;93738;-34
2023/05/30 11:06:45;;;;;;;1.60;1.30;;;13.60;99.90;;;;;;4994412;28;92180;-34
2023/05/30 11:09:16;;;;;;;2.35;1.55;;;13.60;99.90;;;;;;4994311;28;97272;-34
2023/05/30 11:11:47;;;;;;;2.60;2.40;;;13.70;99.90;;;;;;4994005;28;94335;-32
2023/05/30 11:14:14;;;;;;;2.83;1.85;;;13.60;99.90;;;;;;4994311;28;93029;-31
2023/05/30 11:16:54;;;;;;;1.92;1.73;;;13.60;99.90;;;;;;4995266;28;93726;-33
2023/05/30 11:19:27;;;;;;;4.47;2.38;;;13.70;99.90;;;;;;4994462;28;94769;-33
2023/05/30 11:22:01;;;;;;;2.60;2.40;;;13.70;99.90;;;;;;4993101;28;95069;-32
2023/05/30 11:24:30;;;;;;;2.20;2.00;;;13.70;99.90;;;;;;4994528;28;92913;-31
2023/05/30 11:27:10;;;;;;;5.53;3.17;;;13.70;99.90;;;;;;4992826;28;91727;-30
2023/05/30 11:29:57;;;;;;;2.28;1.95;;;13.80;99.90;;;;;;4994193;28;94214;-33
2023/05/30 11:32:25;;;;;;;1.80;1.67;;;13.80;99.90;;;;;;4994021;28;94591;-31
2023/05/30 11:35:00;;;;;;;2.35;2.15;;;13.80;99.90;;;;;;4993342;28;95481;-30
2023/05/30 11:37:29;;;;;;;4.45;1.60;;;13.70;99.90;;;;;;4993576;28;94397;-35
2023/05/30 11:39:55;;;;;;;;;;;13.70;99.90;;;;;;4992502;28;95742;-35
2023/05/30 11:42:21;;;;;;;2.08;1.88;;;13.60;99.90;;;;;;4994940;28;94083;-33
2023/05/30 11:44:47;;;;;;;3.70;2.08;;;13.70;99.90;;;;;;4976818;28;94189;-33
2023/05/30 11:47:14;;;;;;;1.63;1.42;;;13.70;99.90;;;;;;4975563;28;92219;-32
2023/05/30 11:49:40;;;;;;;8.25;4.00;;;13.70;99.90;;;;;;4993911;28;94142;-30
2023/05/30 11:52:07;;;;;;;5.75;3.30;;;13.70;99.90;;;;;;4993512;28;94835;-37
2023/05/30 11:54:33;;;;;;;2.28;2.03;;;13.70;99.90;;;;;;4994853;28;94377;-35
2023/05/30 11:56:59;;;;;;;2.50;2.30;;;13.70;99.90;;;;;;4993825;28;92662;-32
2023/05/30 11:59:26;;;;;;;6.70;2.72;;;13.70;99.90;;;;;;4993223;28;95665;-35
2023/05/30 12:01:52;;;;;;;6.35;2.58;;;13.80;99.90;;;;;;4993226;28;96297;-31
2023/05/30 12:04:27;;;;;;;2.55;2.22;;;13.90;99.90;;;;;;4993565;28;92464;-33
2023/05/30 12:06:59;;;;;;;3.10;1.98;;;14.10;99.90;;;;;;4993440;28;92630;-32
2023/05/30 12:09:26;;;;;;;4.00;3.63;;;14.10;99.90;;;;;;4993857;28;94690;-30
2023/05/30 12:11:58;;;;;;;3.08;2.58;;;14.20;99.90;;;;;;4992785;28;93847;-33
2023/05/30 12:15:00;;;;;;;4.60;2.47;;;14.20;99.90;;;;;;4993066;28;92997;-31
2023/05/30 12:17:26;;;;;;;3.60;2.17;;;14.30;99.90;;;;;;4993812;28;91980;-36
2023/05/30 12:19:56;;;;;;;2.90;2.70;;;14.40;99.90;;;;;;4993102;28;94866;-32
2023/05/30 12:22:23;;;;;;;2.75;2.40;;;14.30;99.90;;;;;;4992471;28;94287;-34
2023/05/30 12:24:49;;;;;;;3.17;2.42;;;14.40;99.90;;;;;;4992886;28;94444;-33
2023/05/30 12:27:19;;;;;;;2.83;2.30;;;14.40;99.90;;;;;;4992966;28;92112;-32
2023/05/30 12:29:45;;;;;;;2.85;2.28;;;14.40;99.90;;;;;;4993379;28;95956;-33
2023/05/30 12:32:11;;;;;;;2.25;2.00;;;14.50;99.90;;;;;;4992540;28;94924;-35
2023/05/30 12:34:38;;;;;;;2.58;2.38;;;14.50;99.90;;;;;;4994043;28;93908;-34
2023/05/30 12:37:06;;;;;;;4.68;2.53;;;14.50;99.90;;;;;;4993365;28;93793;-33
2023/05/30 12:39:32;;;;;;;5.50;2.67;;;14.60;99.90;;;;;;4993649;28;94826;-35
2023/05/30 12:41:58;;;;;;;5.95;2.88;;;14.50;99.90;;;;;;4993516;28;93150;-35
2023/05/30 12:44:24;;;;;;;3.28;2.13;;;14.60;99.90;;;;;;4994134;28;93762;-34
2023/05/30 12:46:49;;;;;;;2.17;2.05;;;14.60;99.90;;;;;;4992908;28;93455;-34